Time;durP1;ratioP1;P1;durP2;ratioP2;P2;SDS_P1;SDS_P2;PMS_P1;PMS_P2;Temp;Humidity;BMP_temperature;BMP_pressure;BME280_temperature;BME280_humidity;BME280_pressure;Samples;Min_cycle;Max_cycle;Signal;HPM_P1;HPM_P2
2022/05/16 00:05:10;;;;;;;110.03;100.43;;;;;;;15.29;100.00;101089.30;2015187;71;32866;-79
2022/05/16 00:10:56;;;;;;;112.63;102.50;;;;;;;15.25;100.00;101083.50;2006469;70;32922;-77
2022/05/16 00:16:40;;;;;;;110.33;100.60;;;;;;;15.30;100.00;101075.58;2011606;71;32904;-77
2022/05/16 00:22:27;;;;;;;110.70;101.03;;;;;;;15.08;100.00;101073.50;2013893;71;32811;-77
2022/05/16 00:28:11;;;;;;;108.63;99.27;;;;;;;14.99;100.00;101086.53;1996796;71;32818;-77
2022/05/16 00:33:56;;;;;;;111.77;101.63;;;;;;;14.98;100.00;101090.47;2012110;71;32775;-77
2022/05/16 00:39:41;;;;;;;118.97;107.67;;;;;;;14.99;100.00;101094.37;1994911;71;32877;-79
2022/05/16 00:45:27;;;;;;;112.80;102.70;;;;;;;14.96;100.00;101106.19;1999291;71;33640;-78
2022/05/16 00:51:15;;;;;;;117.40;106.80;;;;;;;14.97;100.00;101109.81;1997335;71;30790;-77
2022/05/16 00:57:04;;;;;;;115.63;105.03;;;;;;;15.09;100.00;101118.53;1995498;71;30886;-77
2022/05/16 01:09:11;;;;;;;120.70;109.87;;;;;;;15.17;100.00;101123.41;2012940;71;32885;-72
2022/05/16 01:14:58;;;;;;;109.57;99.60;;;;;;;14.96;100.00;101106.75;2010243;70;32792;-75
2022/05/16 01:20:57;;;;;;;117.73;106.77;;;;;;;14.86;100.00;101116.71;2008058;71;32888;-72
2022/05/16 01:26:43;;;;;;;114.20;103.73;;;;;;;14.70;100.00;101111.14;2011488;71;30941;-76
2022/05/16 01:32:28;;;;;;;116.00;105.53;;;;;;;14.68;100.00;101100.25;2004581;71;32994;-76
2022/05/16 01:38:19;;;;;;;117.67;106.23;;;;;;;14.57;100.00;101098.78;2006347;71;32817;-74
2022/05/16 01:44:03;;;;;;;115.07;104.90;;;;;;;14.30;100.00;101095.27;2000400;71;32825;-73
2022/05/16 01:49:49;;;;;;;117.17;106.37;;;;;;;14.14;100.00;101083.52;2004227;71;33325;-79
2022/05/16 01:55:34;;;;;;;118.43;107.07;;;;;;;14.20;100.00;101070.31;2016733;71;33301;-72
2022/05/16 02:01:20;;;;;;;121.97;110.50;;;;;;;14.19;100.00;101077.59;2002971;71;33227;-77
2022/05/16 02:07:05;;;;;;;124.77;113.00;;;;;;;14.28;100.00;101089.74;2004324;71;32949;-77
2022/05/16 02:12:50;;;;;;;127.87;115.67;;;;;;;14.27;100.00;101067.12;2004625;71;32755;-77
2022/05/16 02:18:36;;;;;;;128.23;115.83;;;;;;;14.27;100.00;101071.30;2015302;71;32961;-77
2022/05/16 02:24:39;;;;;;;126.20;113.13;;;;;;;14.04;100.00;101061.33;2012371;70;32889;-77
2022/05/16 02:30:24;;;;;;;121.00;109.37;;;;;;;14.25;100.00;101040.06;2019312;71;32948;-78
2022/05/16 02:36:08;;;;;;;125.37;113.37;;;;;;;14.28;100.00;101013.73;2008232;71;33321;-80
2022/05/16 02:41:54;;;;;;;124.07;111.63;;;;;;;14.24;100.00;101018.28;1991800;71;32839;-78
2022/05/16 02:47:38;;;;;;;123.43;111.50;;;;;;;14.24;100.00;101051.80;2011655;71;32766;-72
2022/05/16 02:53:23;;;;;;;124.30;112.20;;;;;;;14.51;100.00;101035.13;2013287;71;32838;-76
2022/05/16 02:59:08;;;;;;;126.83;114.07;;;;;;;14.60;100.00;101082.78;2008089;71;32975;-74
2022/05/16 03:04:53;;;;;;;129.77;116.20;;;;;;;14.65;100.00;101109.82;1998460;71;32817;-79
2022/05/16 03:10:37;;;;;;;124.40;111.43;;;;;;;14.69;100.00;101106.11;2006675;70;33232;-71
2022/05/16 03:16:22;;;;;;;129.87;116.03;;;;;;;14.79;100.00;101098.11;2016665;70;32893;-78
2022/05/16 03:22:07;;;;;;;129.53;115.90;;;;;;;14.68;100.00;101107.23;2009654;71;32871;-79
2022/05/16 03:27:52;;;;;;;139.27;124.30;;;;;;;14.81;100.00;101025.91;2003641;71;32762;-76
2022/05/16 03:33:36;;;;;;;131.20;117.83;;;;;;;14.69;100.00;101043.76;2006016;70;32956;-81
2022/05/16 03:45:24;;;;;;;145.43;131.30;;;;;;;14.49;100.00;101024.84;2004186;71;32817;-81
2022/05/16 03:51:11;;;;;;;147.33;133.40;;;;;;;14.53;100.00;101028.69;2019135;71;33338;-76
2022/05/16 03:56:56;;;;;;;141.03;127.20;;;;;;;14.45;100.00;101006.20;2013278;71;33447;-80
2022/05/16 04:02:41;;;;;;;142.53;128.57;;;;;;;14.30;100.00;101035.20;2024883;70;33402;-74
2022/05/16 04:08:28;;;;;;;147.90;132.50;;;;;;;14.25;100.00;101049.84;2013466;71;32850;-76
2022/05/16 04:14:14;;;;;;;150.70;135.57;;;;;;;14.28;100.00;101029.66;2016758;71;33441;-74
2022/05/16 04:19:58;;;;;;;150.33;134.73;;;;;;;14.40;100.00;101033.66;2018800;71;33340;-79
2022/05/16 04:25:42;;;;;;;150.57;135.03;;;;;;;14.35;100.00;101049.65;2018816;71;33346;-76
2022/05/16 04:31:27;;;;;;;150.73;135.00;;;;;;;14.19;100.00;101067.25;2017056;71;33438;-77
2022/05/16 04:37:11;;;;;;;157.00;137.73;;;;;;;14.21;100.00;101071.95;2015416;71;32934;-74
2022/05/16 04:42:55;;;;;;;144.47;129.60;;;;;;;14.10;100.00;101079.68;2011657;71;33337;-82
2022/05/16 04:48:40;;;;;;;147.60;132.50;;;;;;;13.98;100.00;101077.91;1978989;71;32762;-81
2022/05/16 04:54:25;;;;;;;153.40;137.27;;;;;;;13.99;100.00;101096.91;2003773;70;32957;-82
2022/05/16 05:00:14;;;;;;;166.77;142.60;;;;;;;14.33;100.00;101098.88;2000868;71;33433;-76
2022/05/16 05:06:00;;;;;;;146.67;132.20;;;;;;;14.16;100.00;101085.19;2001138;71;32814;-76
2022/05/16 05:17:49;;;;;;;167.60;149.30;;;;;;;14.24;100.00;101125.84;1991648;71;32824;-82
2022/05/16 05:23:34;;;;;;;183.53;155.53;;;;;;;14.49;100.00;101131.63;1995149;71;32747;-81
2022/05/16 05:29:20;;;;;;;186.63;160.10;;;;;;;14.55;100.00;101131.22;2009321;71;32841;-71
2022/05/16 05:35:08;;;;;;;193.33;158.90;;;;;;;14.66;100.00;101142.24;2010320;71;33308;-75
2022/05/16 05:40:52;;;;;;;202.27;156.47;;;;;;;14.72;100.00;101160.61;2000361;71;33018;-80
2022/05/16 05:46:38;;;;;;;203.40;159.07;;;;;;;14.69;100.00;101165.39;2004310;71;32819;-79
2022/05/16 05:52:23;;;;;;;183.73;155.37;;;;;;;14.78;100.00;101152.37;2004622;71;33307;-81
2022/05/16 05:58:09;;;;;;;167.70;145.93;;;;;;;14.87;100.00;101175.72;2014948;71;32821;-80
2022/05/16 06:03:55;;;;;;;166.63;148.60;;;;;;;15.01;100.00;101201.77;1999168;71;32768;-72
2022/05/16 06:09:39;;;;;;;131.27;114.63;;;;;;;15.05;100.00;101214.02;2017411;71;33443;-75
2022/05/16 06:15:26;;;;;;;125.03;111.23;;;;;;;15.30;100.00;101217.75;2016821;71;32883;-80
2022/05/16 06:21:10;;;;;;;125.97;112.63;;;;;;;15.43;100.00;101234.31;2015010;70;33411;-71
2022/05/16 06:26:54;;;;;;;117.73;105.80;;;;;;;15.52;100.00;101235.30;2011448;71;32863;-79
2022/05/16 06:32:39;;;;;;;113.60;101.57;;;;;;;15.62;100.00;101242.64;1998766;71;32824;-74
2022/05/16 06:38:27;;;;;;;108.70;97.67;;;;;;;15.75;100.00;101257.23;2009368;71;32860;-74
2022/05/16 06:44:14;;;;;;;110.37;99.40;;;;;;;16.06;100.00;101267.27;2011258;71;32828;-76
2022/05/16 06:49:57;;;;;;;106.53;96.40;;;;;;;16.12;100.00;101269.67;2016937;71;33408;-76
2022/05/16 06:55:41;;;;;;;96.57;87.83;;;;;;;16.36;100.00;101276.43;2016715;71;31006;-79
2022/05/16 07:01:27;;;;;;;83.40;75.33;;;;;;;16.52;100.00;101287.56;1995360;71;32869;-74
2022/05/16 07:07:12;;;;;;;81.90;74.20;;;;;;;16.65;100.00;101296.55;1999097;71;30877;-77
2022/05/16 07:12:57;;;;;;;82.40;75.07;;;;;;;16.62;100.00;101328.05;2017130;71;33411;-74
2022/05/16 07:18:43;;;;;;;77.90;70.87;;;;;;;16.70;100.00;101329.27;1991541;71;32903;-80
2022/05/16 07:24:28;;;;;;;82.17;75.13;;;;;;;16.65;100.00;101340.60;2014909;71;32824;-78
2022/05/16 07:30:13;;;;;;;105.20;97.77;;;;;;;16.67;100.00;101339.73;1991586;71;32818;-78
2022/05/16 07:35:59;;;;;;;78.57;71.17;;;;;;;16.84;100.00;101340.73;1998965;71;30880;-83
2022/05/16 07:41:43;;;;;;;84.30;77.50;;;;;;;17.03;100.00;101350.38;1995381;71;31377;-74
2022/05/16 07:47:30;;;;;;;80.33;73.63;;;;;;;17.03;100.00;101356.00;2014874;71;33387;-74
2022/05/16 07:53:15;;;;;;;81.00;74.30;;;;;;;17.44;100.00;101355.03;2014739;71;30892;-76
2022/05/16 07:59:04;;;;;;;82.47;75.70;;;;;;;17.18;100.00;101368.30;2003958;71;32888;-75
2022/05/16 08:04:49;;;;;;;80.03;73.40;;;;;;;17.06;100.00;101376.44;2016731;71;30941;-76
2022/05/16 08:10:35;;;;;;;84.87;78.33;;;;;;;17.00;100.00;101390.32;2014780;70;31431;-75
2022/05/16 08:16:20;;;;;;;81.97;75.67;;;;;;;17.22;100.00;101381.95;2009394;71;30978;-75
2022/05/16 08:22:05;;;;;;;76.30;70.03;;;;;;;17.68;100.00;101397.13;2013124;71;33343;-75
2022/05/16 08:27:50;;;;;;;73.67;67.80;;;;;;;17.82;100.00;101401.28;2007589;71;30898;-75
2022/05/16 08:33:36;;;;;;;70.57;64.70;;;;;;;17.75;100.00;101405.12;1997162;71;31320;-74
2022/05/16 08:45:29;;;;;;;73.50;67.77;;;;;;;18.09;100.00;101403.11;2005744;71;31544;-76
2022/05/16 08:48:03;;;;;;;72.07;66.30;;;;;;;18.03;100.00;101414.22;1963676;72;24205;-77
2022/05/16 08:50:37;;;;;;;76.83;70.63;;;;;;;18.12;100.00;101422.13;1975682;72;24271;-75
2022/05/16 08:53:10;;;;;;;73.37;67.67;;;;;;;18.09;100.00;101415.19;1985684;72;24198;-75
2022/05/16 08:58:58;;;;;;;72.97;67.17;;;;;;;18.13;100.00;101415.37;2009330;71;30933;-77
2022/05/16 09:01:32;;;;;;;72.90;67.00;;;;;;;18.13;100.00;101426.61;1986947;72;24168;-75
2022/05/16 09:07:22;;;;;;;75.10;69.20;;;;;;;18.14;100.00;101418.44;2016612;71;30951;-75
2022/05/16 09:13:14;;;;;;;76.40;70.80;;;;;;;18.05;100.00;101431.04;2014907;71;31668;-76
2022/05/16 09:22:11;;;;;;;79.87;74.20;;;;;;;18.20;100.00;101441.86;2041863;69;30715;-76
2022/05/16 09:24:45;;;;;;;77.43;71.80;;;;;;;18.23;100.00;101447.41;2021966;70;24152;-75
2022/05/16 09:28:34;;;;;;;80.00;74.40;;;;;;;18.39;100.00;101453.47;1934887;73;24157;-77
2022/05/16 09:33:10;;;;;;;73.73;68.23;;;;;;;18.89;100.00;101450.64;2016664;70;30975;-76
2022/05/16 09:38:59;;;;;;;73.63;68.37;;;;;;;19.14;100.00;101455.25;1998919;71;31418;-77
2022/05/16 09:44:59;;;;;;;70.50;65.07;;;;;;;19.02;100.00;101458.14;2014798;71;30900;-76
2022/05/16 09:51:01;;;;;;;66.27;61.80;;;;;;;18.96;100.00;101465.06;1995340;71;33278;-77
2022/05/16 09:57:01;;;;;;;72.67;67.67;;;;;;;18.95;100.00;101480.89;1995220;71;30914;-76
2022/05/16 10:02:59;;;;;;;75.83;70.70;;;;;;;18.72;100.00;101500.41;2011272;71;31394;-74
2022/05/16 10:08:48;;;;;;;73.53;68.37;;;;;;;18.93;100.00;101481.78;1995082;71;30941;-77
2022/05/16 10:14:37;;;;;;;68.63;63.43;;;;;;;19.41;100.00;101504.28;2015077;71;31009;-73
2022/05/16 10:20:26;;;;;;;73.63;68.67;;;;;;;19.24;100.00;101505.65;2016654;71;30901;-70
2022/05/16 10:26:16;;;;;;;70.93;66.23;;;;;;;18.96;100.00;101515.74;2016876;71;31506;-77
2022/05/16 10:28:51;;;;;;;72.20;67.30;;;;;;;18.80;100.00;101523.54;1982025;72;24159;-71
2022/05/16 10:34:14;;;;;;;70.90;66.00;;;;;;;18.79;100.00;101535.37;1958688;72;24163;-75
2022/05/16 10:40:10;;;;;;;73.00;67.80;;;;;;;18.67;100.00;101532.34;2013071;71;30906;-76
2022/05/16 10:45:59;;;;;;;74.87;69.87;;;;;;;18.81;100.00;101546.33;2004082;71;31058;-71
2022/05/16 10:51:49;;;;;;;84.33;78.33;;;;;;;18.97;100.00;101541.34;2000938;71;31348;-72
2022/05/16 10:58:03;;;;;;;93.93;87.63;;;;;;;19.63;100.00;101538.00;1977537;72;31006;-71
2022/05/16 11:04:20;;;;;;;68.80;63.60;;;;;;;19.99;100.00;101534.85;1998477;71;31530;-70
2022/05/16 11:07:02;;;;;;;68.87;63.70;;;;;;;20.20;100.00;101543.47;1979612;72;24214;-70
2022/05/16 11:09:37;;;;;;;64.93;60.37;;;;;;;20.25;100.00;101539.07;1972460;72;24675;-70
2022/05/16 11:12:12;;;;;;;66.73;61.97;;;;;;;20.30;100.00;101538.94;1959149;72;24147;-71
2022/05/16 11:18:02;;;;;;;65.60;60.90;;;;;;;20.28;100.00;101521.49;2015832;71;30928;-73
2022/05/16 11:23:53;;;;;;;62.97;58.63;;;;;;;20.39;100.00;101532.13;2010265;71;30855;-73
2022/05/16 11:29:45;;;;;;;62.00;57.97;;;;;;;20.36;100.00;101508.81;2000666;71;30873;-73
2022/05/16 11:32:25;;;;;;;60.93;57.03;;;;;;;20.35;100.00;101529.72;1970678;72;24171;-74
2022/05/16 11:35:00;;;;;;;62.23;58.63;;;;;;;20.35;100.00;101524.08;1977079;72;24265;-73
2022/05/16 11:40:54;;;;;;;60.27;56.63;;;;;;;20.55;100.00;101521.11;2011852;71;30911;-73
2022/05/16 11:46:43;;;;;;;61.92;57.78;;;;;;;20.63;100.00;101521.67;2000946;70;31002;-75
2022/05/16 11:49:19;;;;;;;63.37;59.17;;;;;;;20.51;100.00;101539.06;1971986;72;24207;-75
2022/05/16 11:52:21;;;;;;;61.13;56.93;;;;;;;20.57;100.00;101530.67;1970588;72;24217;-76
2022/05/16 12:04:17;;;;;;;54.80;51.47;;;;;;;20.76;100.00;101531.09;2005572;71;30929;-77
2022/05/16 12:10:05;;;;;;;51.80;48.67;;;;;;;20.79;100.00;101531.24;2010521;71;30929;-74
2022/05/16 12:16:10;;;;;;;52.17;48.97;;;;;;;20.98;100.00;101523.78;2011339;71;30898;-79
2022/05/16 12:22:02;;;;;;;51.97;48.73;;;;;;;20.99;100.00;101533.09;2016780;71;30999;-69
2022/05/16 12:25:00;;;;;;;49.77;46.87;;;;;;;21.14;100.00;101543.84;1982836;72;24273;-80
2022/05/16 12:30:50;;;;;;;47.90;44.90;;;;;;;21.37;100.00;101536.75;2016534;71;30971;-78
2022/05/16 12:36:53;;;;;;;47.85;45.08;;;;;;;21.68;100.00;101532.14;2015157;71;30956;-72
2022/05/16 12:43:06;;;;;;;49.73;46.60;;;;;;;21.64;100.00;101551.80;2009718;71;30959;-70
2022/05/16 12:45:55;;;;;;;51.25;47.83;;;;;;;21.30;100.00;101559.08;1970554;72;24227;-75
2022/05/16 12:49:24;;;;;;;50.23;47.10;;;;;;;21.12;100.00;101563.11;1977054;72;24235;-70
2022/05/16 12:58:49;;;;;;;53.38;50.17;;;;;;;20.91;100.00;101570.09;2000563;71;30942;-75
2022/05/16 13:04:50;;;;;;;69.87;65.43;;;;;;;20.72;100.00;101602.11;2011349;71;30938;-76
2022/05/16 13:07:23;;;;;;;74.05;69.05;;;;;;;20.63;100.00;101604.95;1983060;72;24200;-76
2022/05/16 13:10:00;;;;;;;72.80;67.45;;;;;;;20.58;100.00;101599.48;1978582;72;24256;-70
2022/05/16 13:12:39;;;;;;;75.22;70.08;;;;;;;20.45;100.00;101601.93;1979279;72;24595;-75
2022/05/16 13:18:28;;;;;;;78.15;72.70;;;;;;;20.21;100.00;101596.75;1994977;71;30913;-70
2022/05/16 13:24:18;;;;;;;79.40;73.97;;;;;;;20.15;100.00;101607.94;2003551;70;30823;-69
2022/05/16 13:30:04;;;;;;;69.03;64.23;;;;;;;20.32;100.00;101615.63;2008043;71;30900;-76
2022/05/16 13:35:49;;;;;;;64.42;60.15;;;;;;;20.56;100.00;101605.22;2015284;71;31102;-75
2022/05/16 13:41:34;;;;;;;63.98;60.05;;;;;;;20.70;100.00;101603.05;2003108;71;30815;-72
2022/05/16 13:47:24;;;;;;;73.33;68.72;;;;;;;20.51;100.00;101626.55;2018534;71;31050;-78
2022/05/16 13:53:09;;;;;;;72.30;67.47;;;;;;;20.17;100.00;101618.33;2000325;71;31043;-70
2022/05/16 13:58:58;;;;;;;71.37;66.97;;;;;;;20.16;100.00;101614.41;2013010;71;30898;-71
2022/05/16 14:04:46;;;;;;;71.97;67.50;;;;;;;20.48;100.00;101606.06;2009634;71;30964;-74
2022/05/16 14:10:37;;;;;;;64.62;60.83;;;;;;;20.59;100.00;101611.02;1997432;71;30886;-73
2022/05/16 14:16:25;;;;;;;70.63;66.40;;;;;;;20.58;100.00;101617.02;1995084;71;30965;-71
2022/05/16 14:22:21;;;;;;;69.93;65.73;;;;;;;20.27;100.00;101623.65;2017001;71;31414;-72
2022/05/16 14:28:10;;;;;;;67.40;63.30;;;;;;;20.26;100.00;101616.34;2016912;71;31030;-72
2022/05/16 14:30:43;;;;;;;65.30;61.13;;;;;;;20.24;100.00;101618.64;1983287;72;24224;-72
2022/05/16 14:36:36;;;;;;;58.00;54.73;;;;;;;20.68;100.00;101600.55;2015316;71;30928;-76
2022/05/16 14:42:33;;;;;;;65.80;61.97;;;;;;;20.35;100.00;101600.84;2000186;71;31017;-82
2022/05/16 14:48:22;;;;;;;60.43;57.13;;;;;;;20.47;100.00;101591.70;1994990;71;31468;-84
2022/05/16 14:54:15;;;;;;;60.40;57.10;;;;;;;20.56;100.00;101591.94;1999010;71;31300;-72
2022/05/16 15:00:00;;;;;;;60.83;57.43;;;;;;;20.72;100.00;101602.95;2002780;71;31311;-83
2022/05/16 15:05:44;;;;;;;59.03;55.83;;;;;;;20.38;100.00;101614.28;2002390;71;30870;-81
2022/05/16 15:11:33;;;;;;;57.57;54.23;;;;;;;20.21;100.00;101621.30;2006299;71;30940;-73
2022/05/16 15:17:19;;;;;;;52.13;49.27;;;;;;;20.18;100.00;101607.30;2001719;70;31341;-81
2022/05/16 15:23:03;;;;;;;50.10;47.50;;;;;;;20.15;100.00;101623.45;1999100;71;30908;-72
2022/05/16 15:28:47;;;;;;;57.20;54.10;;;;;;;20.02;100.00;101627.28;2006363;71;30825;-78
2022/05/16 15:34:34;;;;;;;52.40;49.50;;;;;;;19.87;100.00;101614.48;2016727;71;30902;-78
2022/05/16 15:40:20;;;;;;;50.20;47.40;;;;;;;20.19;100.00;101617.42;1995578;71;30929;-72
2022/05/16 15:46:09;;;;;;;48.23;45.67;;;;;;;20.32;100.00;101604.34;2000960;71;30845;-76
2022/05/16 15:51:56;;;;;;;50.60;47.70;;;;;;;20.43;100.00;101596.61;2017019;71;30905;-75
2022/05/16 15:57:42;;;;;;;46.90;44.33;;;;;;;20.32;100.00;101610.79;2002784;71;31402;-76
2022/05/16 16:12:22;;;;;;;50.33;47.53;;;;;;;20.39;100.00;101604.09;2011972;71;31481;-79
2022/05/16 16:18:12;;;;;;;52.63;49.73;;;;;;;20.11;100.00;101624.48;2006582;71;30885;-74
2022/05/16 16:23:56;;;;;;;50.57;47.53;;;;;;;19.81;100.00;101623.44;2017378;71;31428;-75
2022/05/16 16:29:41;;;;;;;47.53;44.67;;;;;;;19.97;100.00;101630.27;2011783;71;31082;-73
2022/05/16 16:35:27;;;;;;;45.47;42.87;;;;;;;20.05;100.00;101628.03;2008193;71;30917;-74
2022/05/16 16:41:12;;;;;;;43.53;41.03;;;;;;;20.30;100.00;101630.06;2018647;71;31021;-71
2022/05/16 16:46:58;;;;;;;47.30;44.60;;;;;;;20.36;100.00;101630.16;2009217;71;30946;-74
2022/05/16 16:58:45;;;;;;;40.47;38.07;;;;;;;19.92;100.00;101627.02;2000304;71;30997;-76
2022/05/16 17:04:29;;;;;;;43.50;40.90;;;;;;;19.92;100.00;101624.20;1964914;70;31156;-75
2022/05/16 17:10:16;;;;;;;43.03;40.50;;;;;;;19.55;100.00;101627.59;1999219;71;31400;-78
2022/05/16 17:16:03;;;;;;;40.70;38.27;;;;;;;19.52;100.00;101626.82;2009361;71;30891;-80
2022/05/16 17:21:48;;;;;;;44.30;41.77;;;;;;;19.41;100.00;101633.31;2014946;71;30961;-80
2022/05/16 17:27:33;;;;;;;40.97;38.20;;;;;;;19.41;100.00;101626.27;2011745;71;30806;-70
2022/05/16 17:33:19;;;;;;;42.23;39.83;;;;;;;19.41;100.00;101625.44;1995410;71;30860;-69
2022/05/16 17:39:03;;;;;;;46.53;43.70;;;;;;;19.48;100.00;101630.88;2011725;71;30884;-70
2022/05/16 17:44:48;;;;;;;45.50;42.87;;;;;;;19.56;100.00;101632.05;2005307;71;31557;-79
2022/05/16 17:50:34;;;;;;;38.23;35.93;;;;;;;19.60;100.00;101632.23;2011824;71;31535;-76
2022/05/16 17:56:18;;;;;;;38.97;36.17;;;;;;;19.52;100.00;101636.11;1988154;71;30844;-75
2022/05/16 18:02:05;;;;;;;38.73;36.20;;;;;;;19.40;100.00;101640.67;1997786;71;30818;-71
2022/05/16 18:07:50;;;;;;;39.80;37.07;;;;;;;19.30;100.00;101639.55;2011144;71;31423;-74
2022/05/16 18:13:35;;;;;;;37.20;34.70;;;;;;;19.33;100.00;101637.51;2011280;71;31380;-74
2022/05/16 18:19:23;;;;;;;40.83;38.43;;;;;;;19.08;100.00;101647.50;1998221;71;30943;-76
2022/05/16 18:25:12;;;;;;;43.40;40.65;;;;;;;19.10;100.00;101647.42;1987894;71;27949;-70
2022/05/16 18:30:57;;;;;;;40.20;37.70;;;;;;;19.07;100.00;101652.30;1995362;71;30891;-77
2022/05/16 18:36:44;;;;;;;41.70;39.10;;;;;;;18.93;100.00;101653.53;2006581;71;31363;-71
2022/05/16 18:54:36;;;;;;;43.87;40.73;;;;;;;18.52;100.00;101670.06;2006334;71;33276;-68
2022/05/16 19:00:21;;;;;;;43.23;40.33;;;;;;;18.44;100.00;101658.11;2016954;71;31434;-69
2022/05/16 19:06:08;;;;;;;44.47;41.57;;;;;;;18.36;100.00;101674.91;2004029;71;30980;-76
2022/05/16 19:11:52;;;;;;;44.57;41.80;;;;;;;18.26;100.00;101677.98;2011756;71;30927;-79
2022/05/16 19:17:38;;;;;;;48.23;44.80;;;;;;;18.27;100.00;101685.28;2014947;71;30949;-70
2022/05/16 19:23:26;;;;;;;51.97;48.77;;;;;;;18.17;100.00;101684.93;2000783;71;31422;-70
2022/05/16 19:35:12;;;;;;;58.83;54.90;;;;;;;17.85;100.00;101701.94;2014693;71;30869;-79
2022/05/16 19:40:58;;;;;;;60.27;56.00;;;;;;;17.77;100.00;101706.32;2008046;71;30797;-70
2022/05/16 19:46:43;;;;;;;65.20;60.90;;;;;;;17.57;100.00;101710.36;2005912;71;30924;-69
2022/05/16 19:52:28;;;;;;;69.87;65.13;;;;;;;17.45;100.00;101715.66;2002620;71;31335;-72
2022/05/16 19:58:13;;;;;;;73.40;68.40;;;;;;;17.30;100.00;101728.00;1995306;71;33263;-71
2022/05/16 20:03:57;;;;;;;73.33;68.47;;;;;;;17.20;100.00;101728.77;2009604;71;30886;-71
2022/05/16 20:09:41;;;;;;;72.23;67.33;;;;;;;17.12;100.00;101737.31;2015051;71;33342;-71
2022/05/16 20:15:27;;;;;;;76.03;70.93;;;;;;;17.01;100.00;101749.87;2016651;71;30998;-78
2022/05/16 20:21:12;;;;;;;77.60;71.90;;;;;;;16.84;100.00;101746.79;2000456;71;30903;-81
2022/05/16 20:26:57;;;;;;;78.50;73.17;;;;;;;16.83;100.00;101752.13;2014968;71;31025;-79
2022/05/16 20:32:45;;;;;;;74.43;69.33;;;;;;;16.71;100.00;101758.22;2005875;71;31393;-72
2022/05/16 20:38:31;;;;;;;78.07;72.63;;;;;;;16.61;100.00;101765.37;2000891;71;30860;-72
2022/05/16 20:44:17;;;;;;;79.47;73.93;;;;;;;16.49;100.00;101767.77;1995159;71;33453;-72
2022/05/16 20:50:01;;;;;;;76.40;71.07;;;;;;;16.47;100.00;101774.83;1998533;71;32890;-73
2022/05/16 20:55:47;;;;;;;78.10;72.50;;;;;;;16.47;100.00;101779.88;1993477;71;33323;-69
2022/05/16 21:01:31;;;;;;;77.73;72.13;;;;;;;16.28;100.00;101780.41;2000873;71;30818;-71
2022/05/16 21:07:15;;;;;;;76.50;70.90;;;;;;;16.21;100.00;101779.39;1991621;71;32798;-79
2022/05/16 21:13:02;;;;;;;77.43;71.60;;;;;;;16.16;100.00;101785.06;2016709;71;30946;-70
2022/05/16 21:18:47;;;;;;;75.93;70.20;;;;;;;16.05;100.00;101801.72;1997200;71;33393;-71
2022/05/16 21:24:32;;;;;;;77.20;71.63;;;;;;;16.05;100.00;101793.31;2018468;71;32823;-79
2022/05/16 21:30:20;;;;;;;78.60;72.90;;;;;;;15.93;100.00;101801.31;2009621;71;32962;-79
2022/05/16 21:36:05;;;;;;;81.63;75.33;;;;;;;15.88;100.00;101808.37;2004300;71;32848;-71
2022/05/16 21:41:49;;;;;;;84.60;77.90;;;;;;;15.89;100.00;101815.08;2006563;71;31306;-79
2022/05/16 21:47:34;;;;;;;85.77;79.33;;;;;;;15.66;100.00;101828.48;2004056;71;31335;-77
2022/05/16 21:53:19;;;;;;;79.37;73.13;;;;;;;15.74;100.00;101822.27;2000097;71;30982;-79
2022/05/16 21:59:03;;;;;;;81.13;75.00;;;;;;;15.74;100.00;101833.47;2006219;71;30986;-72
2022/05/16 22:04:48;;;;;;;80.47;74.23;;;;;;;15.72;100.00;101835.72;1995529;71;30951;-90
2022/05/16 22:10:32;;;;;;;77.63;71.43;;;;;;;15.58;100.00;101842.30;1991480;71;32815;-79
2022/05/16 22:16:20;;;;;;;82.97;76.03;;;;;;;15.43;100.00;101846.90;2010015;71;33279;-79
2022/05/16 22:22:06;;;;;;;81.97;75.40;;;;;;;15.48;100.00;101843.22;2005643;71;30922;-71
2022/05/16 22:27:50;;;;;;;83.23;76.20;;;;;;;15.44;100.00;101845.78;1991584;71;31303;-71
2022/05/16 22:33:34;;;;;;;81.47;75.10;;;;;;;15.37;100.00;101849.45;2002639;71;33321;-71
2022/05/16 22:39:21;;;;;;;78.10;71.80;;;;;;;15.38;100.00;101837.70;2014885;71;32857;-72
2022/05/16 22:45:10;;;;;;;74.33;67.73;;;;;;;15.31;100.00;101837.21;2009844;71;32906;-71
2022/05/16 22:50:54;;;;;;;80.63;74.63;;;;;;;15.19;100.00;101838.97;2004211;71;30911;-78
2022/05/16 22:56:39;;;;;;;85.13;78.90;;;;;;;15.29;100.00;101838.05;2011098;71;32951;-79
2022/05/16 23:08:26;;;;;;;77.57;71.07;;;;;;;15.32;100.00;101845.86;2015001;71;33264;-71
2022/05/16 23:14:11;;;;;;;77.07;70.63;;;;;;;15.27;100.00;101845.37;1995265;71;32904;-71
2022/05/16 23:19:56;;;;;;;74.10;67.63;;;;;;;15.16;100.00;101845.72;2009500;71;32824;-71
2022/05/16 23:25:40;;;;;;;77.60;70.87;;;;;;;15.21;100.00;101846.52;2009953;71;32817;-71
2022/05/16 23:31:24;;;;;;;81.57;74.60;;;;;;;15.14;100.00;101865.62;2016792;71;32829;-78
2022/05/16 23:37:09;;;;;;;76.73;70.00;;;;;;;15.05;100.00;101867.36;2013072;71;33387;-78
2022/05/16 23:42:54;;;;;;;76.87;70.23;;;;;;;15.04;100.00;101864.28;2009774;71;32844;-71
2022/05/16 23:48:38;;;;;;;79.23;72.47;;;;;;;14.97;100.00;101870.78;2014922;71;33002;-77
2022/05/16 23:54:23;;;;;;;74.70;67.77;;;;;;;14.89;100.00;101871.39;2015076;71;33326;-79
